Time;durP1;ratioP1;P1;durP2;ratioP2;P2;SDS_P1;SDS_P2;PMS_P1;PMS_P2;Temp;Humidity;BMP_temperature;BMP_pressure;BME280_temperature;BME280_humidity;BME280_pressure;Samples;Min_cycle;Max_cycle;Signal;HPM_P1;HPM_P2
2022/12/13 00:01:57;;;;;;;33.40;17.77;;;-3.70;83.60;;;0.01;49.33;96927.25;5001802;28;20046;-51
2022/12/13 00:04:25;;;;;;;39.43;18.67;;;-3.70;83.70;;;-0.01;49.75;96932.59;5001955;28;20052;-54
2022/12/13 00:06:53;;;;;;;37.20;20.70;;;-3.70;84.10;;;-0.03;49.35;96924.03;5002021;28;20240;-49
2022/12/13 00:09:21;;;;;;;43.07;19.50;;;-3.70;84.00;;;-0.04;49.27;96919.75;5001950;28;20271;-52
2022/12/13 00:11:49;;;;;;;45.07;20.33;;;-3.80;83.80;;;-0.06;48.97;96921.66;5001421;28;20345;-51
2022/12/13 00:14:17;;;;;;;39.40;19.53;;;-3.80;83.50;;;-0.11;49.52;96936.84;5001768;28;20046;-51
2022/12/13 00:16:48;;;;;;;34.27;17.00;;;-3.90;83.20;;;-0.20;49.26;96927.03;5000985;28;20378;-53
2022/12/13 00:19:17;;;;;;;34.37;16.77;;;-3.90;83.30;;;-0.26;49.23;96922.28;5000859;28;20158;-52
2022/12/13 00:21:46;;;;;;;37.03;16.70;;;-4.10;83.90;;;-0.32;49.47;96925.34;5001747;28;20042;-53
2022/12/13 00:24:14;;;;;;;35.13;17.07;;;-4.10;84.00;;;-0.37;49.19;96923.03;5002171;28;20050;-51
2022/12/13 00:26:42;;;;;;;33.23;14.33;;;-4.20;84.80;;;-0.39;49.75;96924.94;5001842;28;20245;-53
2022/12/13 00:29:10;;;;;;;28.43;13.27;;;-4.10;85.30;;;-0.38;49.31;96928.41;4984470;28;20076;-51
2022/12/13 00:31:38;;;;;;;36.33;15.47;;;-4.10;84.80;;;-0.37;49.80;96920.41;5000376;28;20248;-52
2022/12/13 00:34:27;;;;;;;32.17;16.83;;;-4.00;85.50;;;-0.31;49.23;96924.38;5001498;28;20073;-51
2022/12/13 00:36:57;;;;;;;33.93;16.70;;;-4.00;85.20;;;-0.31;49.68;96922.63;5004126;28;20056;-53
2022/12/13 00:39:26;;;;;;;38.67;17.93;;;-3.90;84.60;;;-0.32;50.07;96925.34;5005336;28;20047;-53
2022/12/13 00:41:54;;;;;;;25.90;14.13;;;-4.00;84.60;;;-0.32;49.76;96925.34;5005617;28;20052;-52
2022/12/13 00:44:22;;;;;;;26.00;12.23;;;-3.90;84.50;;;-0.31;49.83;96920.00;5005320;28;20046;-51
2022/12/13 00:46:50;;;;;;;28.27;13.83;;;-4.00;84.20;;;-0.33;49.21;96915.81;5005498;28;20048;-54
2022/12/13 00:49:19;;;;;;;31.97;14.93;;;-4.00;84.50;;;-0.32;49.87;96910.47;5005319;28;20072;-53
2022/12/13 00:51:48;;;;;;;30.83;14.73;;;-4.00;84.50;;;-0.32;49.44;96909.63;5004787;28;20268;-53
2022/12/13 00:54:17;;;;;;;31.10;14.77;;;-4.10;84.20;;;-0.37;49.67;96902.09;5005155;28;20064;-50
2022/12/13 00:56:44;;;;;;;32.37;15.20;;;-4.10;84.20;;;-0.36;49.06;96903.78;5005136;28;20048;-53
2022/12/13 00:59:14;;;;;;;34.37;15.30;;;-4.10;84.50;;;-0.38;49.92;96897.00;5004995;28;20056;-51
2022/12/13 01:01:42;;;;;;;27.00;15.07;;;-4.00;84.70;;;-0.40;49.27;96890.09;5004874;28;20046;-51
2022/12/13 01:04:11;;;;;;;28.20;15.77;;;-4.00;84.40;;;-0.42;49.74;96894.59;5005017;28;20044;-53
2022/12/13 01:06:43;;;;;;;28.73;15.33;;;-4.00;84.70;;;-0.42;49.71;96884.16;5004855;28;20229;-52
2022/12/13 01:09:19;;;;;;;34.67;15.43;;;-4.00;84.30;;;-0.44;49.69;96893.88;5004749;28;20046;-54
2022/12/13 01:11:47;;;;;;;25.00;12.53;;;-4.00;84.70;;;-0.45;49.69;96891.38;5004580;28;20042;-51
2022/12/13 01:14:16;;;;;;;29.53;14.57;;;-4.00;85.00;;;-0.43;49.72;96890.34;5004731;28;20076;-50
2022/12/13 01:16:44;;;;;;;24.97;13.53;;;-4.00;84.80;;;-0.42;50.16;96891.16;5005118;28;20050;-52
2022/12/13 01:19:12;;;;;;;33.70;15.37;;;-4.00;85.00;;;-0.42;50.07;96888.56;5004809;28;20046;-52
2022/12/13 01:21:40;;;;;;;27.00;14.30;;;-4.00;84.40;;;-0.40;49.68;96891.88;5004291;28;20043;-51
2022/12/13 01:24:08;;;;;;;27.87;14.73;;;-4.00;84.50;;;-0.42;49.45;96896.41;5004872;28;20038;-62
2022/12/13 01:26:36;;;;;;;30.00;15.83;;;-4.10;83.70;;;-0.45;49.32;96899.22;5004687;28;20046;-61
2022/12/13 01:29:04;;;;;;;27.30;14.33;;;-4.10;84.00;;;-0.48;49.13;96895.06;5004646;28;20046;-62
2022/12/13 01:31:33;;;;;;;35.30;15.83;;;-4.20;84.00;;;-0.51;49.71;96902.28;5004029;28;20050;-60
2022/12/13 01:34:09;;;;;;;31.90;16.53;;;-4.30;83.70;;;-0.55;49.81;96890.38;5002345;28;20042;-60
2022/12/13 01:36:39;;;;;;;40.90;18.37;;;-4.30;84.00;;;-0.60;49.38;96886.31;4997058;28;20065;-52
2022/12/13 01:39:09;;;;;;;33.53;16.70;;;-4.40;83.40;;;-0.66;49.46;96894.63;5003378;28;20030;-53
2022/12/13 01:41:49;;;;;;;36.33;16.23;;;-4.40;83.90;;;-0.70;49.61;96892.31;5004105;28;20050;-53
2022/12/13 01:44:54;;;;;;;33.40;16.20;;;-4.50;84.30;;;-0.84;49.31;96888.88;5003236;28;20072;-53
2022/12/13 01:47:27;;;;;;;;;;;-4.50;84.10;;;-0.92;49.45;96887.78;5003525;28;20052;-51
2022/12/13 01:50:00;;;;;;;30.03;15.60;;;-4.60;85.00;;;-0.84;49.36;96885.44;5003274;28;19924;-49
2022/12/13 01:52:32;;;;;;;21.27;10.25;;;-4.50;85.50;;;-0.85;49.37;96884.63;5002701;28;20368;-51
2022/12/13 01:55:05;;;;;;;28.03;12.63;;;-4.40;86.10;;;-0.81;49.89;96891.31;5003102;28;20038;-52
2022/12/13 01:57:36;;;;;;;27.90;14.27;;;-4.40;86.10;;;-0.78;50.00;96886.81;5003014;28;20046;-53
2022/12/13 02:00:11;;;;;;;31.27;15.87;;;-4.30;86.20;;;-0.73;49.76;96882.91;5003992;28;20042;-50
2022/12/13 02:02:39;;;;;;;38.80;16.07;;;-4.30;85.80;;;-0.71;50.27;96888.03;4994850;28;20065;-61
2022/12/13 02:05:23;;;;;;;34.93;16.00;;;-4.20;85.90;;;-0.72;49.87;96879.34;5002426;28;20046;-60
2022/12/13 02:07:52;;;;;;;29.88;15.07;;;-4.20;86.00;;;-0.70;49.93;96877.47;4997835;28;20065;-61
2022/12/13 02:10:20;;;;;;;26.60;14.47;;;-4.30;85.40;;;-0.69;50.22;96878.31;5002155;28;20057;-60
2022/12/13 02:12:49;;;;;;;24.33;15.03;;;-4.20;85.80;;;-0.68;49.73;96869.50;5002790;28;20044;-61
2022/12/13 02:15:18;;;;;;;23.90;13.10;;;-4.20;85.20;;;-0.67;49.56;96876.41;5002671;28;20048;-60
2022/12/13 02:18:19;;;;;;;24.87;12.73;;;-4.30;84.90;;;-0.74;49.93;96872.56;5002614;28;20267;-61
2022/12/13 02:21:04;;;;;;;31.77;15.20;;;-4.20;85.50;;;-0.71;50.24;96869.75;4996141;28;20363;-61
2022/12/13 02:24:09;;;;;;;30.17;14.40;;;-4.30;85.20;;;-0.76;49.58;96867.44;5003897;28;20057;-60
2022/12/13 02:26:42;;;;;;;26.95;13.77;;;-4.30;85.50;;;-0.74;50.17;96862.09;5003254;28;20057;-61
2022/12/13 02:29:39;;;;;;;30.10;15.07;;;-4.30;85.50;;;-0.72;49.58;96862.81;5002515;28;20072;-60
2022/12/13 02:32:34;;;;;;;26.17;13.20;;;-4.30;85.70;;;-0.74;50.56;96857.69;4999101;28;20042;-61
2022/12/13 02:35:21;;;;;;;24.67;14.30;;;-4.20;85.20;;;-0.73;50.13;96861.19;4998581;28;20053;-60
2022/12/13 02:38:22;;;;;;;26.83;13.03;;;-4.20;85.30;;;-0.81;50.35;96862.56;4995166;28;20344;-63
2022/12/13 02:41:23;;;;;;;25.80;13.83;;;-4.30;85.10;;;-0.78;49.92;96858.03;4980589;28;20057;-61
2022/12/13 02:44:30;;;;;;;23.33;13.17;;;-4.30;85.10;;;-0.82;50.26;96853.03;4996923;28;20131;-60
2022/12/13 02:47:10;;;;;;;23.43;11.97;;;-4.30;85.10;;;-0.75;49.95;96847.38;4991718;28;20069;-61
2022/12/13 02:49:54;;;;;;;23.10;12.03;;;-4.30;86.30;;;-0.75;49.98;96852.63;4995174;28;20165;-61
2022/12/13 02:52:26;;;;;;;15.88;9.90;;;-4.30;85.10;;;-0.77;50.21;96857.94;5002515;28;20048;-61
2022/12/13 02:54:56;;;;;;;24.77;11.87;;;-4.30;84.90;;;-0.76;50.45;96867.44;5001998;28;20244;-61
2022/12/13 02:57:38;;;;;;;26.67;12.13;;;-4.40;84.20;;;-0.79;50.04;96857.22;5002849;28;20272;-60
2022/12/13 03:00:12;;;;;;;29.07;14.00;;;-4.40;84.20;;;-0.78;49.81;96864.09;5001580;28;20042;-60
2022/12/13 03:03:06;;;;;;;25.75;13.25;;;-4.40;85.30;;;-0.84;50.28;96854.09;5002411;28;20048;-61
2022/12/13 03:09:39;;;;;;;24.70;11.93;;;-4.40;83.60;;;-0.95;50.24;96848.78;5001536;28;20054;-61
2022/12/13 03:15:33;;;;;;;30.83;13.97;;;-4.40;84.60;;;-0.96;50.18;96828.84;4999021;28;20372;-60
2022/12/13 03:18:21;;;;;;;26.80;14.57;;;-4.50;84.10;;;-0.97;49.87;96827.16;5001718;28;20060;-61
2022/12/13 03:20:53;;;;;;;24.63;13.37;;;-4.50;85.20;;;-0.95;49.96;96823.53;4994092;28;20052;-61
2022/12/13 03:23:22;;;;;;;23.70;12.83;;;-4.60;84.70;;;-0.95;50.02;96820.91;4986240;28;20061;-61
2022/12/13 03:26:00;;;;;;;31.50;14.70;;;-4.60;84.90;;;-0.98;50.05;96830.72;5002839;28;20042;-61
2022/12/13 03:28:28;;;;;;;31.13;15.57;;;-4.60;84.80;;;-1.01;49.53;96827.41;5002496;28;20045;-61
2022/12/13 03:30:56;;;;;;;24.73;13.47;;;-4.70;84.60;;;-1.03;49.87;96826.69;5001861;28;20045;-61
2022/12/13 03:33:24;;;;;;;29.20;14.77;;;-4.80;84.80;;;-1.04;49.61;96832.84;5002251;28;20251;-61
2022/12/13 03:35:51;;;;;;;23.40;13.03;;;-4.80;85.30;;;-1.05;49.69;96825.94;5002341;28;20253;-61
2022/12/13 03:38:20;;;;;;;27.57;13.57;;;-4.80;85.40;;;-1.04;49.56;96829.41;5002334;28;20256;-61
2022/12/13 03:40:59;;;;;;;24.33;14.33;;;-4.70;85.90;;;-1.06;49.52;96826.06;5000899;28;20038;-61
2022/12/13 03:43:27;;;;;;;29.00;14.57;;;-4.70;85.50;;;-1.06;49.41;96828.66;5002294;28;20333;-61
2022/12/13 03:45:55;;;;;;;25.13;13.97;;;-4.70;85.10;;;-1.08;49.92;96823.53;5002327;28;20049;-61
2022/12/13 03:48:23;;;;;;;24.73;13.93;;;-4.70;85.00;;;-1.09;49.75;96826.25;5002058;28;20194;-61
2022/12/13 03:50:53;;;;;;;30.00;16.20;;;-4.70;85.20;;;-1.08;49.89;96826.16;5000977;28;20050;-61
2022/12/13 03:53:22;;;;;;;30.57;15.37;;;-4.80;84.80;;;-1.08;49.58;96820.94;5000795;28;20061;-61
2022/12/13 03:56:03;;;;;;;41.70;17.17;;;-4.70;85.10;;;-1.08;49.71;96809.66;5002271;28;20129;-61
2022/12/13 03:58:33;;;;;;;26.70;14.53;;;-4.70;84.70;;;-1.11;49.79;96809.88;5001188;28;20054;-61
2022/12/13 04:01:16;;;;;;;32.63;15.17;;;-4.80;83.80;;;-1.19;49.60;96807.78;5000726;28;20359;-61
2022/12/13 04:03:46;;;;;;;28.43;16.13;;;-4.90;84.10;;;-1.20;49.49;96808.75;5000770;28;20042;-61
2022/12/13 04:06:15;;;;;;;34.70;17.63;;;-5.00;84.50;;;-1.26;49.64;96810.03;5001713;28;20038;-61
2022/12/13 04:08:51;;;;;;;31.97;17.23;;;-5.00;84.50;;;-1.26;49.74;96809.16;4994786;28;20081;-61
2022/12/13 04:14:13;;;;;;;32.73;17.23;;;-5.00;84.70;;;-1.37;49.93;96806.50;5005116;28;20047;-61
2022/12/13 04:16:51;;;;;;;26.03;14.47;;;-5.10;85.10;;;-1.37;49.59;96807.31;4998749;28;20391;-61
2022/12/13 04:19:19;;;;;;;29.33;15.63;;;-5.10;85.40;;;-1.39;49.90;96809.22;5005938;28;20048;-61
2022/12/13 04:21:53;;;;;;;26.13;14.73;;;-5.10;85.00;;;-1.41;49.96;96809.31;4998292;28;20038;-61
2022/12/13 04:24:22;;;;;;;28.83;13.77;;;-5.20;84.80;;;-1.41;49.75;96816.31;5004809;28;20046;-61
2022/12/13 04:27:02;;;;;;;26.47;13.57;;;-5.10;85.40;;;-1.42;49.49;96812.03;5005179;28;20049;-61
2022/12/13 04:29:30;;;;;;;26.13;13.63;;;-5.10;84.90;;;-1.41;49.93;96814.53;5004613;28;20062;-61
2022/12/13 04:32:03;;;;;;;25.93;13.30;;;-5.10;85.00;;;-1.44;50.03;96808.69;5003988;28;20046;-61
2022/12/13 04:34:32;;;;;;;23.37;12.97;;;-5.20;84.80;;;-1.47;49.57;96803.69;5003348;28;20258;-61
2022/12/13 04:37:05;;;;;;;21.70;11.63;;;-5.20;84.80;;;-1.49;49.85;96811.63;5003977;28;20057;-61
2022/12/13 04:39:33;;;;;;;25.47;11.93;;;-5.20;85.00;;;-1.50;49.76;96809.13;5005259;28;20064;-61
2022/12/13 04:42:02;;;;;;;26.00;14.00;;;-5.20;84.70;;;-1.48;49.50;96809.84;5004233;28;20153;-61
2022/12/13 04:44:31;;;;;;;25.20;14.07;;;-5.20;85.00;;;-1.47;49.66;96808.91;5004532;28;20074;-61
2022/12/13 04:47:04;;;;;;;19.23;10.25;;;-5.20;85.00;;;-1.50;49.84;96803.91;5006167;28;20049;-61
2022/12/13 04:49:33;;;;;;;23.17;12.93;;;-5.10;85.40;;;-1.49;49.68;96806.41;5004612;28;20060;-61
2022/12/13 04:52:02;;;;;;;41.23;19.63;;;-5.10;84.90;;;-1.50;49.56;96804.72;5003922;28;20046;-61
2022/12/13 04:54:31;;;;;;;59.90;24.13;;;-5.20;84.60;;;-1.51;49.50;96810.03;5004882;28;20391;-61
2022/12/13 04:57:09;;;;;;;31.30;18.25;;;-5.20;85.10;;;-1.54;49.56;96810.28;5004512;28;20250;-60
2022/12/13 04:59:38;;;;;;;32.20;15.20;;;-5.20;85.20;;;-1.53;49.66;96802.34;5003881;28;20225;-61
2022/12/13 05:02:07;;;;;;;32.27;14.87;;;-5.20;85.60;;;-1.54;49.68;96805.06;5003947;28;20044;-52
2022/12/13 05:04:35;;;;;;;35.43;15.60;;;-5.20;85.00;;;-1.56;49.42;96804.34;5003920;28;20050;-55
2022/12/13 05:07:03;;;;;;;40.17;18.47;;;-5.30;85.00;;;-1.58;49.63;96804.44;5004826;28;20042;-55
2022/12/13 05:09:31;;;;;;;49.90;19.43;;;-5.30;84.80;;;-1.61;49.82;96802.03;5003621;28;20046;-54
2022/12/13 05:11:59;;;;;;;40.20;18.17;;;-5.30;85.90;;;-1.61;50.02;96802.88;5004762;28;20049;-51
2022/12/13 05:14:32;;;;;;;35.20;17.47;;;-5.30;85.80;;;-1.60;49.66;96801.09;5004885;28;20167;-54
2022/12/13 05:17:00;;;;;;;29.50;14.67;;;-5.30;85.30;;;-1.62;49.72;96798.59;5004730;28;20251;-53
2022/12/13 05:19:29;;;;;;;28.10;14.53;;;-5.30;85.90;;;-1.59;50.04;96803.59;5004655;28;20278;-55
2022/12/13 05:21:59;;;;;;;24.80;14.07;;;-5.20;86.30;;;-1.58;50.04;96807.03;4987212;28;20038;-54
2022/12/13 05:24:30;;;;;;;33.63;14.67;;;-5.20;85.30;;;-1.60;49.75;96798.47;5004821;28;20244;-52
2022/12/13 05:26:59;;;;;;;29.33;15.50;;;-5.30;85.30;;;-1.63;49.82;96801.28;5003630;28;20046;-53
2022/12/13 05:29:26;;;;;;;77.43;33.87;;;-5.30;85.40;;;-1.63;49.79;96796.94;5003427;28;20046;-54
2022/12/13 05:31:54;;;;;;;51.93;22.20;;;-5.30;85.70;;;-1.65;49.79;96796.19;5004151;28;20046;-53
2022/12/13 05:34:22;;;;;;;52.30;21.77;;;-5.40;85.10;;;-1.66;49.75;96793.69;5004875;28;20042;-55
2022/12/13 05:36:50;;;;;;;45.00;21.53;;;-5.40;85.50;;;-1.68;49.72;96792.97;4996653;28;20046;-55
2022/12/13 05:39:18;;;;;;;37.30;19.17;;;-5.40;85.10;;;-1.70;49.93;96789.63;5004553;28;20042;-55
2022/12/13 05:41:58;;;;;;;35.20;17.47;;;-5.40;85.60;;;-1.72;49.77;96791.50;4996797;28;20046;-52
2022/12/13 05:44:31;;;;;;;33.70;16.23;;;-5.40;84.90;;;-1.73;49.71;96787.22;5004187;28;20056;-55
2022/12/13 05:47:00;;;;;;;36.10;16.00;;;-5.50;84.90;;;-1.76;49.53;96790.88;5004094;28;20093;-52
2022/12/13 05:49:30;;;;;;;29.83;14.33;;;-5.40;85.50;;;-1.75;49.56;96783.88;5003353;28;20287;-53
2022/12/13 05:51:59;;;;;;;26.07;13.43;;;-5.40;85.60;;;-1.74;50.10;96788.19;5002952;28;20374;-56
2022/12/13 05:54:26;;;;;;;23.43;13.43;;;-5.40;85.10;;;-1.74;49.69;96793.41;5003107;28;20206;-52
2022/12/13 05:56:54;;;;;;;31.33;16.00;;;-5.40;85.80;;;-1.77;49.70;96786.59;5003191;28;20202;-56
2022/12/13 05:59:22;;;;;;;38.03;17.47;;;-5.40;85.20;;;-1.76;49.67;96783.06;5003148;28;20052;-54
2022/12/13 06:01:50;;;;;;;30.07;15.10;;;-5.40;85.00;;;-1.76;49.74;96780.44;5003723;28;20316;-51
2022/12/13 06:04:18;;;;;;;28.60;13.73;;;-5.40;84.90;;;-1.77;49.70;96783.97;5004188;28;20048;-53
2022/12/13 06:06:51;;;;;;;30.07;14.30;;;-5.40;84.80;;;-1.78;49.62;96782.34;5004526;28;20050;-53
2022/12/13 06:09:20;;;;;;;29.67;14.33;;;-5.50;84.60;;;-1.80;49.81;96781.59;5003947;28;20089;-49
2022/12/13 06:11:48;;;;;;;25.87;13.73;;;-5.50;84.40;;;-1.84;49.66;96786.19;5002966;28;20283;-56
2022/12/13 06:14:16;;;;;;;24.77;13.67;;;-5.50;84.50;;;-1.84;49.58;96786.19;5003986;28;20247;-55
2022/12/13 06:16:51;;;;;;;24.33;13.43;;;-5.50;84.80;;;-1.83;49.73;96785.25;5003721;28;20046;-52
2022/12/13 06:19:22;;;;;;;27.40;13.77;;;-5.50;84.80;;;-1.83;49.50;96785.25;5002821;28;20054;-50
2022/12/13 06:21:53;;;;;;;29.37;14.13;;;-5.50;84.70;;;-1.84;49.68;96783.59;5001956;28;20241;-55
2022/12/13 06:24:22;;;;;;;29.53;14.70;;;-5.50;84.40;;;-1.84;49.39;96786.19;5003479;28;20057;-53
2022/12/13 06:26:50;;;;;;;28.53;13.87;;;-5.50;84.50;;;-1.85;49.63;96783.69;5003552;28;20026;-53
2022/12/13 06:29:21;;;;;;;47.07;16.83;;;-5.50;84.50;;;-1.86;49.55;96776.78;5003702;28;20054;-55
2022/12/13 06:31:54;;;;;;;37.40;16.05;;;-5.60;84.60;;;-1.88;49.57;96776.06;5001895;28;20248;-51
2022/12/13 06:34:34;;;;;;;29.00;14.77;;;-5.60;84.90;;;-1.88;49.49;96783.88;5002880;28;20046;-52
2022/12/13 06:37:06;;;;;;;28.50;14.15;;;-5.60;85.00;;;-1.90;49.76;96777.94;5001735;28;20046;-52
2022/12/13 06:39:34;;;;;;;30.13;15.27;;;-5.60;85.20;;;-1.90;49.70;96783.16;5003592;28;20256;-52
2022/12/13 06:42:05;;;;;;;27.47;13.77;;;-5.60;85.30;;;-1.91;49.53;96782.31;5003195;28;20049;-51
2022/12/13 06:44:34;;;;;;;26.97;12.37;;;-5.60;84.50;;;-1.93;49.78;96771.16;5002249;28;20042;-53
2022/12/13 06:47:04;;;;;;;26.27;12.73;;;-5.60;85.10;;;-1.91;49.71;96786.72;5003368;28;20273;-54
2022/12/13 06:49:41;;;;;;;24.80;13.63;;;-5.50;85.50;;;-1.91;49.70;96790.16;5003208;28;20049;-55
2022/12/13 06:52:12;;;;;;;25.00;12.37;;;-5.60;84.90;;;-1.90;49.60;96790.97;5002021;28;20060;-53
2022/12/13 06:54:41;;;;;;;35.60;15.27;;;-5.60;84.60;;;-1.90;49.71;96796.19;5001948;28;20050;-52
2022/12/13 06:57:13;;;;;;;33.73;15.93;;;-5.60;84.70;;;-1.93;49.66;96791.22;5002259;28;20244;-54
2022/12/13 06:59:41;;;;;;;29.23;13.93;;;-5.60;85.20;;;-1.94;49.71;96787.75;5002809;28;20242;-54
2022/12/13 07:02:09;;;;;;;32.33;14.63;;;-5.60;85.00;;;-1.95;49.61;96791.31;5003394;28;20252;-53
2022/12/13 07:04:53;;;;;;;31.43;15.40;;;-5.70;84.80;;;-1.96;49.68;96794.00;5001706;28;20370;-54
2022/12/13 07:07:22;;;;;;;39.70;14.70;;;-5.70;85.20;;;-1.98;49.46;96801.94;5003008;28;20233;-55
2022/12/13 07:09:50;;;;;;;45.40;17.17;;;-5.70;85.20;;;-1.98;49.64;96805.41;5002733;28;20050;-55
2022/12/13 07:12:19;;;;;;;30.10;14.37;;;-5.70;85.50;;;-1.99;49.59;96808.94;5001148;28;20340;-55
2022/12/13 07:14:47;;;;;;;39.63;17.23;;;-5.70;85.00;;;-2.01;49.67;96810.00;5001634;28;20043;-54
2022/12/13 07:17:16;;;;;;;40.67;15.80;;;-5.70;85.70;;;-2.01;49.76;96805.59;5003600;28;20052;-54
2022/12/13 07:20:09;;;;;;;30.10;14.90;;;-5.70;85.80;;;-2.02;49.84;96814.34;5001826;28;20044;-53
2022/12/13 07:22:38;;;;;;;38.03;16.23;;;-5.70;85.50;;;-2.03;50.07;96806.66;5002039;28;20064;-55
2022/12/13 07:25:15;;;;;;;47.53;20.10;;;-5.80;85.80;;;-2.02;49.78;96803.09;5001808;28;20042;-50
2022/12/13 07:28:01;;;;;;;42.83;20.67;;;-5.80;86.10;;;-2.01;49.97;96810.00;5001488;28;20050;-54
2022/12/13 07:30:36;;;;;;;34.83;18.50;;;-5.70;85.80;;;-2.01;49.85;96816.03;5001334;28;20057;-52
2022/12/13 07:33:08;;;;;;;37.93;16.87;;;-5.70;86.00;;;-1.99;49.93;96805.50;4996193;28;20047;-55
2022/12/13 07:35:36;;;;;;;37.00;16.50;;;-5.70;86.00;;;-1.95;49.70;96820.00;4998454;28;20046;-54
2022/12/13 07:38:10;;;;;;;34.43;15.40;;;-5.70;85.90;;;-1.93;50.03;96817.28;5002406;28;20046;-51
2022/12/13 07:40:39;;;;;;;37.43;15.40;;;-5.60;86.00;;;-1.89;49.94;96823.97;5001039;28;20050;-52
2022/12/13 07:43:08;;;;;;;38.00;16.30;;;-5.60;85.50;;;-1.89;50.12;96816.97;5002965;28;20083;-53
2022/12/13 07:45:37;;;;;;;35.90;16.33;;;-5.60;85.90;;;-1.87;49.91;96822.91;5001304;28;20042;-53
2022/12/13 07:48:07;;;;;;;32.33;14.97;;;-5.60;85.60;;;-1.84;49.99;96832.31;5001579;28;20366;-51
2022/12/13 07:50:36;;;;;;;29.33;14.60;;;-5.50;85.90;;;-1.82;49.75;96839.09;5001707;28;20057;-54
2022/12/13 07:53:07;;;;;;;34.60;16.03;;;-5.50;85.50;;;-1.80;49.93;96836.41;5002136;28;20341;-52
2022/12/13 07:55:36;;;;;;;27.83;14.10;;;-5.50;85.80;;;-1.79;50.00;96838.88;5002155;28;20252;-51
2022/12/13 07:58:13;;;;;;;34.83;15.53;;;-5.50;85.80;;;-1.77;50.07;96838.78;5002287;28;20067;-52
2022/12/13 08:00:45;;;;;;;24.93;13.53;;;-5.40;85.70;;;-1.73;49.82;96839.41;5000801;28;20042;-51
2022/12/13 08:03:14;;;;;;;36.47;17.10;;;-5.40;85.60;;;-1.70;49.90;96834.81;5002142;28;20042;-55
2022/12/13 08:06:08;;;;;;;43.40;18.13;;;-5.40;85.40;;;-1.71;49.97;96837.53;5001034;28;20065;-51
2022/12/13 08:08:37;;;;;;;25.20;11.30;;;-5.30;85.50;;;-1.69;50.13;96833.03;5002118;28;20378;-56
2022/12/13 08:11:11;;;;;;;31.70;15.00;;;-5.30;85.50;;;-1.66;50.37;96838.06;5016801;28;20293;-54
2022/12/13 08:13:42;;;;;;;;;;;-5.30;85.30;;;-1.74;50.39;96838.59;5002468;28;20054;-54
2022/12/13 08:16:13;;;;;;;47.60;18.83;;;-5.30;85.50;;;-1.66;50.08;96838.88;5002351;28;20375;-54
2022/12/13 08:18:58;;;;;;;40.67;18.20;;;-5.40;85.50;;;-1.68;49.46;96843.38;5002082;28;20249;-51
2022/12/13 08:21:40;;;;;;;34.27;14.87;;;-5.40;85.60;;;-1.67;49.87;96844.22;5001812;28;20046;-51
2022/12/13 08:24:30;;;;;;;37.57;15.20;;;-5.40;85.60;;;-1.63;50.07;96838.69;4997323;28;20050;-54
2022/12/13 08:27:01;;;;;;;27.43;13.60;;;-5.30;85.90;;;-1.62;50.15;96839.53;5000810;28;20040;-53
2022/12/13 08:29:32;;;;;;;31.10;13.60;;;-5.40;85.60;;;-1.57;50.12;96837.44;5001226;28;20049;-50
2022/12/13 08:32:06;;;;;;;26.05;14.15;;;-5.30;86.00;;;-1.56;49.86;96839.09;4994166;28;20046;-51
2022/12/13 08:34:34;;;;;;;40.23;16.97;;;-5.30;85.80;;;-1.53;49.72;96838.91;5001052;28;20046;-55
2022/12/13 08:37:02;;;;;;;45.60;17.83;;;-5.30;86.10;;;-1.50;49.94;96832.63;4993649;28;20053;-51
2022/12/13 08:39:34;;;;;;;30.13;15.10;;;-5.30;86.20;;;-1.49;50.12;96834.25;5001744;28;20046;-52
2022/12/13 08:42:12;;;;;;;27.80;13.43;;;-5.20;86.10;;;-1.49;50.13;96829.91;4993009;28;20360;-53
2022/12/13 08:44:49;;;;;;;28.07;14.33;;;-5.20;86.60;;;-1.44;50.11;96845.25;5000875;28;20058;-50
2022/12/13 08:47:21;;;;;;;31.35;14.50;;;-5.20;86.30;;;-1.42;50.03;96846.78;5000913;28;20046;-55
2022/12/13 08:49:58;;;;;;;29.23;15.47;;;-5.10;86.40;;;-1.40;50.13;96850.16;5001774;28;20057;-53
2022/12/13 08:52:35;;;;;;;26.87;13.57;;;-5.10;86.80;;;-1.37;50.27;96843.88;5000211;28;20060;-57
2022/12/13 08:55:14;;;;;;;26.97;12.97;;;-5.10;86.60;;;-1.35;50.37;96843.78;4995333;28;20254;-53
2022/12/13 08:57:43;;;;;;;25.00;12.20;;;-5.10;86.70;;;-1.36;49.85;96842.91;5003134;28;20053;-52
2022/12/13 09:00:14;;;;;;;26.03;12.77;;;-5.10;86.60;;;-1.30;50.13;96844.28;5004221;28;20068;-52
2022/12/13 09:02:42;;;;;;;43.37;16.07;;;-5.10;87.10;;;-1.27;50.33;96838.84;5004966;28;20050;-51
2022/12/13 09:05:11;;;;;;;50.33;19.53;;;-4.90;87.00;;;-1.21;50.57;96843.63;5004123;28;21599;-50
2022/12/13 09:08:01;;;;;;;35.60;15.73;;;-4.90;86.90;;;-1.16;50.20;96838.94;5004297;28;20049;-50
2022/12/13 09:10:30;;;;;;;33.40;16.13;;;-4.90;87.30;;;-1.11;50.18;96838.59;5004359;28;20050;-53
2022/12/13 09:13:05;;;;;;;35.63;15.50;;;-4.80;86.80;;;-1.04;50.08;96842.47;4997609;28;20048;-51
2022/12/13 09:15:40;;;;;;;29.00;14.37;;;-4.80;87.30;;;-1.02;50.17;96836.16;5005114;28;20057;-52
2022/12/13 09:18:13;;;;;;;30.87;15.13;;;-4.70;86.80;;;-0.96;50.12;96844.53;5005071;28;20042;-51
2022/12/13 09:20:51;;;;;;;27.50;13.73;;;-4.70;87.10;;;-0.91;50.51;96842.41;5004564;28;20049;-52
2022/12/13 09:23:18;;;;;;;38.47;17.80;;;-4.60;87.00;;;-0.88;50.42;96832.56;5005041;28;20174;-54
2022/12/13 09:25:57;;;;;;;28.73;13.37;;;-4.60;86.70;;;-0.81;50.40;96841.63;5004974;28;20060;-55
2022/12/13 09:28:35;;;;;;;28.87;13.73;;;-4.50;87.30;;;-0.75;50.14;96834.31;5005350;28;20060;-54
2022/12/13 09:31:14;;;;;;;34.33;15.87;;;-4.50;86.20;;;-0.73;50.52;96840.25;4995695;28;20046;-54
2022/12/13 09:33:43;;;;;;;28.73;15.30;;;-4.50;86.70;;;-0.70;50.55;96838.25;5003769;28;20057;-54
2022/12/13 09:36:17;;;;;;;30.23;13.50;;;-4.50;86.40;;;-0.65;50.37;96837.94;5004894;28;20056;-52
2022/12/13 09:38:46;;;;;;;23.37;12.80;;;-4.40;86.70;;;-0.61;50.14;96837.56;5003624;28;20052;-53
2022/12/13 09:41:28;;;;;;;30.27;13.77;;;-4.30;87.40;;;-0.58;50.18;96852.22;5003002;28;20030;-53
2022/12/13 09:44:06;;;;;;;29.87;13.57;;;-4.20;87.00;;;-0.52;50.52;96859.63;5003566;28;20054;-54
2022/12/13 09:46:56;;;;;;;26.67;12.87;;;-4.20;86.10;;;-0.46;50.70;96851.31;5003554;28;20046;-53
2022/12/13 09:49:39;;;;;;;29.80;13.85;;;-4.20;86.40;;;-0.43;50.39;96840.66;5004465;28;20050;-53
2022/12/13 09:52:14;;;;;;;27.20;13.03;;;-4.10;86.70;;;-0.37;50.20;96836.72;4995450;28;20237;-51
2022/12/13 09:54:56;;;;;;;27.70;14.27;;;-4.10;86.70;;;-0.36;50.59;96843.63;5003364;28;20057;-51
2022/12/13 09:57:30;;;;;;;28.57;14.00;;;-4.00;86.00;;;-0.30;49.96;96840.56;5004446;28;20265;-51
2022/12/13 10:00:06;;;;;;;26.67;13.63;;;-4.00;86.50;;;-0.25;50.69;96848.09;5003183;28;20048;-51
2022/12/13 10:02:58;;;;;;;21.30;12.50;;;-3.90;86.40;;;-0.22;50.56;96840.00;5004232;28;20260;-53
2022/12/13 10:05:37;;;;;;;25.30;12.47;;;-3.90;86.40;;;-0.17;50.26;96832.66;5003154;28;20058;-50
2022/12/13 10:08:19;;;;;;;26.17;13.47;;;-3.90;86.10;;;-0.14;50.25;96834.19;5001766;28;20054;-51
2022/12/13 10:10:50;;;;;;;29.07;14.00;;;-3.80;85.70;;;-0.09;50.52;96827.66;5002864;28;20052;-49
2022/12/13 10:13:43;;;;;;;26.83;13.50;;;-3.80;85.90;;;-0.11;49.82;96832.19;5003059;28;20052;-51
2022/12/13 10:16:44;;;;;;;24.00;12.63;;;-3.80;85.90;;;-0.09;50.41;96819.00;4995750;28;20042;-52
2022/12/13 10:19:34;;;;;;;33.53;14.53;;;-3.80;86.10;;;-0.03;50.23;96819.34;4995338;28;20057;-53
2022/12/13 10:22:07;;;;;;;21.77;12.30;;;-3.70;85.70;;;0.05;50.68;96826.63;5002714;28;20363;-51
2022/12/13 10:24:59;;;;;;;26.37;13.17;;;-3.60;85.80;;;0.07;49.92;96826.53;5003913;28;20106;-54
2022/12/13 10:27:39;;;;;;;27.53;12.77;;;-3.50;85.60;;;0.10;50.09;96813.22;4998446;28;20053;-54
2022/12/13 10:30:21;;;;;;;27.17;14.13;;;-3.50;84.50;;;0.15;50.41;96805.81;5002477;28;20038;-58
2022/12/13 10:32:58;;;;;;;30.60;13.97;;;-3.50;84.60;;;0.24;49.57;96806.91;5002472;28;20410;-53
2022/12/13 10:35:33;;;;;;;33.43;14.37;;;-3.40;84.40;;;0.26;50.27;96807.63;5003523;28;20042;-52
2022/12/13 10:38:25;;;;;;;27.03;14.70;;;-3.40;83.80;;;0.28;50.25;96801.31;5001405;28;20038;-54
2022/12/13 10:40:59;;;;;;;27.80;12.87;;;-3.30;83.80;;;0.40;50.34;96791.69;5017278;28;20252;-54
2022/12/13 10:43:31;;;;;;;29.20;15.60;;;-3.30;84.20;;;0.45;50.14;96788.72;5002450;28;20379;-53
2022/12/13 10:46:02;;;;;;;28.73;14.60;;;-3.20;83.90;;;0.50;50.20;96782.16;5002395;28;20046;-53